Time;durP1;ratioP1;P1;durP2;ratioP2;P2;SDS_P1;SDS_P2;PMS_P1;PMS_P2;Temp;Humidity;BMP_temperature;BMP_pressure;BME280_temperature;BME280_humidity;BME280_pressure;Samples;Min_cycle;Max_cycle;Signal;HPM_P1;HPM_P2
2022/08/26 00:00:34;;;;;;;;;;;;;;;26.50;60.60;100064.75;5366056;32;34188;-93
2022/08/26 00:03:38;;;;;;;;;;;;;;;26.75;59.93;100057.47;5416361;32;34480;-90
2022/08/26 00:06:40;;;;;;;;;;;;;;;26.93;59.02;100061.63;5405311;32;43428;-94
2022/08/26 00:09:47;;;;;;;;;;;;;;;26.37;61.72;100058.00;5421846;32;35534;-94
2022/08/26 00:12:50;;;;;;;;;;;;;;;25.95;63.46;100055.47;5410152;32;35509;-94
2022/08/26 00:15:53;;;;;;;;;;;;;;;25.94;62.47;100043.03;5402647;32;34536;-93
2022/08/26 00:18:55;;;;;;;;;;;;;;;26.23;61.08;100052.47;5423058;32;35015;-93
2022/08/26 00:21:57;;;;;;;;;;;;;;;25.85;63.13;100049.41;5405812;32;34681;-94
2022/08/26 00:25:00;;;;;;;;;;;;;;;25.56;65.04;100047.13;5423120;32;35050;-90
2022/08/26 00:28:03;;;;;;;;;;;;;;;25.89;63.11;100050.75;5405593;32;34765;-90
2022/08/26 00:31:08;;;;;;;;;;;;;;;25.96;62.82;100054.50;5407148;32;34187;-92
2022/08/26 00:34:12;;;;;;;;;;;;;;;25.79;63.70;100053.63;5409232;32;46331;-94
2022/08/26 00:37:17;;;;;;;;;;;;;;;25.94;63.05;100053.78;5394947;32;36171;-93
2022/08/26 00:40:20;;;;;;;;;;;;;;;25.76;63.44;100050.41;5359227;32;35450;-93
2022/08/26 00:43:23;;;;;;;;;;;;;;;25.83;63.46;100051.44;5323697;32;34312;-93
2022/08/26 00:46:27;;;;;;;;;;;;;;;25.99;62.99;100050.59;5355485;32;34631;-90
2022/08/26 00:49:43;;;;;;;;;;;;;;;26.07;62.76;100050.59;5340005;32;34398;-93
2022/08/26 00:52:45;;;;;;;;;;;;;;;26.09;62.32;100046.75;5333691;32;44529;-93
2022/08/26 00:55:54;;;;;;;;;;;;;;;25.69;64.47;100050.19;5339177;32;35097;-89
2022/08/26 00:58:57;;;;;;;;;;;;;;;25.16;66.10;100043.31;5321377;32;33597;-90
2022/08/26 01:01:59;;;;;;;;;;;;;;;25.85;63.67;100050.25;5294786;32;989078;-93
2022/08/26 01:05:03;;;;;;;;;;;;;;;25.89;63.40;100050.75;5320736;32;35995;-95
2022/08/26 01:08:06;;;;;;;;;;;;;;;25.78;63.70;100045.72;5344440;32;32967;-93
2022/08/26 01:11:09;;;;;;;;;;;;;;;26.24;61.81;100046.91;5350412;32;35803;-93
2022/08/26 01:14:12;;;;;;;;;;;;;;;26.15;62.72;100050.63;5412914;32;42647;-90
2022/08/26 01:17:14;;;;;;;;;;;;;;;25.81;62.96;100029.22;5415875;32;35942;-90
2022/08/26 01:20:22;;;;;;;;;;;;;;;25.39;65.20;100041.72;5384314;32;37720;-90
2022/08/26 01:23:25;;;;;;;;;;;;;;;24.45;69.70;100044.41;5415103;32;36817;-90
2022/08/26 01:26:30;;;;;;;;;;;;;;;25.41;64.84;100036.19;5395791;32;34644;-90
2022/08/26 01:29:34;;;;;;;;;;;;;;;25.01;66.01;100028.78;5414803;32;35372;-89
2022/08/26 01:32:36;;;;;;;;;;;;;;;25.49;64.60;100035.34;5407217;32;34534;-89
2022/08/26 01:35:39;;;;;;;;;;;;;;;25.47;64.58;100045.44;5398637;32;35796;-89
2022/08/26 01:38:42;;;;;;;;;;;;;;;25.34;64.81;100036.00;5424278;32;45167;-90
2022/08/26 01:41:44;;;;;;;;;;;;;;;25.33;65.25;100028.94;5409983;32;34725;-93
2022/08/26 01:44:48;;;;;;;;;;;;;;;25.44;64.58;100049.31;5415031;32;34480;-90
2022/08/26 01:47:52;;;;;;;;;;;;;;;25.71;63.14;100029.34;5391907;32;34331;-93
2022/08/26 01:50:58;;;;;;;;;;;;;;;25.32;64.91;100042.56;5383607;32;34643;-93
2022/08/26 01:54:00;;;;;;;;;;;;;;;25.28;64.94;100033.97;5417082;32;34131;-93
2022/08/26 01:57:03;;;;;;;;;;;;;;;24.59;68.07;100040.31;5380708;32;34675;-93
2022/08/26 02:00:07;;;;;;;;;;;;;;;25.18;66.04;100035.09;5400953;32;33906;-93
2022/08/26 02:03:20;;;;;;;;;;;;;;;25.59;64.19;100036.06;5382056;32;35017;-93
2022/08/26 02:06:22;;;;;;;;;;;;;;;25.25;65.28;100039.69;5409162;32;34925;-90
2022/08/26 02:09:25;;;;;;;;;;;;;;;24.64;68.20;100038.00;5407422;32;35163;-93
2022/08/26 02:12:27;;;;;;;;;;;;;;;24.73;68.26;100037.06;5408797;32;36635;-93
2022/08/26 02:15:29;;;;;;;;;;;;;;;24.64;69.01;100039.84;5408413;32;34502;-93
2022/08/26 02:18:32;;;;;;;;;;;;;;;24.45;69.81;100039.06;5383884;32;34184;-89
2022/08/26 02:21:34;;;;;;;;;;;;;;;25.08;66.62;100038.75;5413871;32;34232;-94
2022/08/26 02:24:46;;;;;;;;;;;;;;;25.23;65.90;100038.13;5394751;32;35159;-93
2022/08/26 02:27:48;;;;;;;;;;;;;;;25.47;64.32;100040.06;5411251;32;44768;-94
2022/08/26 02:30:50;;;;;;;;;;;;;;;25.09;66.11;100040.44;5391105;32;35185;-89
2022/08/26 02:33:52;;;;;;;;;;;;;;;24.30;70.32;100045.97;5408784;32;34049;-92
2022/08/26 02:36:55;;;;;;;;;;;;;;;24.03;71.34;100044.25;5425448;32;35961;-89
2022/08/26 02:39:59;;;;;;;;;;;;;;;24.75;68.17;100037.72;5384356;32;34313;-89
2022/08/26 02:43:01;;;;;;;;;;;;;;;25.10;66.46;100035.91;5440097;32;35589;-89
2022/08/26 02:46:03;;;;;;;;;;;;;;;25.10;66.10;100039.44;5395460;32;34631;-89
2022/08/26 02:49:05;;;;;;;;;;;;;;;25.30;65.13;100036.47;5394926;32;36466;-93
2022/08/26 02:52:07;;;;;;;;;;;;;;;24.59;68.16;100034.94;5407913;32;34109;-92
2022/08/26 02:55:10;;;;;;;;;;;;;;;24.59;67.82;100043.00;5393445;32;34089;-89
2022/08/26 02:58:12;;;;;;;;;;;;;;;23.85;71.55;100043.41;5418876;32;44636;-93
2022/08/26 03:01:25;;;;;;;;;;;;;;;23.63;72.89;100048.22;5388668;32;36702;-93
2022/08/26 03:04:27;;;;;;;;;;;;;;;23.55;72.82;100042.72;5399242;32;34288;-89
2022/08/26 03:07:34;;;;;;;;;;;;;;;23.83;72.33;100056.12;5393543;32;35373;-92
2022/08/26 03:10:37;;;;;;;;;;;;;;;23.79;72.59;100047.53;5405361;32;33841;-93
2022/08/26 03:13:41;;;;;;;;;;;;;;;24.28;69.73;100050.63;5424883;32;44659;-92
2022/08/26 03:16:43;;;;;;;;;;;;;;;24.27;69.76;100057.84;5402595;32;35939;-89
2022/08/26 03:19:49;;;;;;;;;;;;;;;23.95;71.51;100041.47;5417261;32;34132;-90
2022/08/26 03:22:58;;;;;;;;;;;;;;;24.12;70.59;100039.78;5406580;32;35746;-89
2022/08/26 03:26:00;;;;;;;;;;;;;;;24.87;67.56;100032.09;5416560;32;34210;-92
2022/08/26 03:32:23;;;;;;;;;;;;;;;24.35;69.71;100024.06;5413498;32;34224;-94
2022/08/26 03:35:28;;;;;;;;;;;;;;;25.05;66.17;100017.59;5416380;32;35862;-90
2022/08/26 03:38:30;;;;;;;;;;;;;;;24.50;68.41;100020.63;5398839;32;34838;-94
2022/08/26 03:41:33;;;;;;;;;;;;;;;24.98;66.47;100023.72;5427241;32;34816;-93
2022/08/26 03:44:35;;;;;;;;;;;;;;;24.90;66.65;100018.31;5420265;32;35226;-93
2022/08/26 03:47:43;;;;;;;;;;;;;;;24.35;69.11;100022.22;5407913;32;44574;-90
2022/08/26 03:50:45;;;;;;;;;;;;;;;24.53;68.28;100022.12;5402651;32;34283;-93
2022/08/26 03:53:49;;;;;;;;;;;;;;;24.01;70.94;100030.13;5411347;32;38001;-90
2022/08/26 03:56:51;;;;;;;;;;;;;;;24.02;70.32;100029.97;5428340;32;34544;-90
2022/08/26 03:59:54;;;;;;;;;;;;;;;23.70;72.28;100027.84;5408049;32;34829;-92
2022/08/26 04:02:56;;;;;;;;;;;;;;;23.85;71.89;100030.00;5398834;32;34276;-89
2022/08/26 04:05:58;;;;;;;;;;;;;;;24.18;69.73;100037.31;5394089;32;34468;-90
2022/08/26 04:09:02;;;;;;;;;;;;;;;24.43;68.47;100024.09;5400398;32;35087;-90
2022/08/26 04:12:05;;;;;;;;;;;;;;;24.27;69.01;100031.00;5423582;32;36860;-92
2022/08/26 04:15:09;;;;;;;;;;;;;;;24.42;68.75;100022.41;5393254;32;35308;-89
2022/08/26 04:18:12;;;;;;;;;;;;;;;23.48;71.74;100022.88;5429311;32;43799;-89
2022/08/26 04:21:14;;;;;;;;;;;;;;;23.38;73.11;100032.81;5406925;32;36154;-90
2022/08/26 04:24:16;;;;;;;;;;;;;;;23.72;71.61;100028.53;5418186;32;34980;-89
2022/08/26 04:27:18;;;;;;;;;;;;;;;24.62;67.97;100025.72;5422274;32;35423;-95
2022/08/26 04:30:21;;;;;;;;;;;;;;;24.51;68.19;100022.31;5378335;32;35455;-95
2022/08/26 04:33:24;;;;;;;;;;;;;;;25.08;65.72;100024.47;5426433;32;35211;-89
2022/08/26 04:36:34;;;;;;;;;;;;;;;24.03;70.32;100031.66;5403578;32;34656;-95
2022/08/26 04:39:36;;;;;;;;;;;;;;;23.56;72.18;100028.31;5426424;32;34395;-89
2022/08/26 04:42:39;;;;;;;;;;;;;;;24.31;68.66;100027.00;5402813;32;34716;-93
2022/08/26 04:45:42;;;;;;;;;;;;;;;24.97;65.84;100016.66;5411133;32;43990;-88
2022/08/26 04:48:47;;;;;;;;;;;;;;;24.37;68.06;100017.50;5429121;32;34401;-93
2022/08/26 04:51:49;;;;;;;;;;;;;;;24.76;66.52;100022.44;5393594;32;36694;-89
2022/08/26 04:54:51;;;;;;;;;;;;;;;24.94;65.80;100017.84;5413395;32;34091;-96
2022/08/26 04:57:57;;;;;;;;;;;;;;;24.81;66.31;100018.28;5399230;32;34406;-96
2022/08/26 05:01:00;;;;;;;;;;;;;;;25.06;65.65;100021.97;5417754;32;36195;-95
2022/08/26 05:04:05;;;;;;;;;;;;;;;25.16;64.52;100027.19;5416987;32;33988;-93
2022/08/26 05:07:10;;;;;;;;;;;;;;;24.69;67.15;100021.41;5410825;32;34257;-96
2022/08/26 05:10:12;;;;;;;;;;;;;;;26.15;61.64;100023.69;5424957;32;44459;-96
2022/08/26 05:13:16;;;;;;;;;;;;;;;26.19;60.90;100023.16;5376157;32;34161;-96
2022/08/26 05:16:21;;;;;;;;;;;;;;;26.23;60.45;100028.22;5411459;32;34795;-89
2022/08/26 05:19:23;;;;;;;;;;;;;;;27.49;56.10;100021.94;5427752;32;34487;-96
2022/08/26 05:22:28;;;;;;;;;;;;;;;26.97;56.58;100022.50;5420660;32;35576;-90
2022/08/26 05:25:30;;;;;;;;;;;;;;;27.12;56.55;100024.53;5409986;32;35985;-90
2022/08/26 05:28:32;;;;;;;;;;;;;;;26.97;55.33;100024.38;5403116;32;34506;-90
2022/08/26 05:31:35;;;;;;;;;;;;;;;27.25;54.60;100022.94;5416334;32;33905;-86
2022/08/26 05:34:37;;;;;;;;;;;;;;;28.43;51.16;100024.47;5386292;32;34182;-85
2022/08/26 05:37:43;;;;;;;;;;;;;;;29.12;49.30;100025.91;5417603;32;44529;-86
2022/08/26 05:40:50;;;;;;;;;;;;;;;28.92;49.32;100021.25;5404364;32;35369;-83
2022/08/26 05:43:58;;;;;;;;;;;;;;;29.05;48.87;100027.69;5409334;32;34088;-88
2022/08/26 05:47:00;;;;;;;;;;;;;;;28.27;51.07;100033.53;5414303;32;34067;-92
2022/08/26 05:50:04;;;;;;;;;;;;;;;29.50;48.08;100033.87;5411863;32;34532;-92
2022/08/26 05:53:08;;;;;;;;;;;;;;;29.79;46.29;100032.94;5423481;32;34289;-87
2022/08/26 05:56:10;;;;;;;;;;;;;;;30.00;46.19;100028.53;5390174;32;43743;-88
2022/08/26 05:59:13;;;;;;;;;;;;;;;30.28;45.56;100024.03;5421605;32;35417;-88
2022/08/26 06:02:15;;;;;;;;;;;;;;;30.57;44.67;100030.28;5376029;32;34047;-87
2022/08/26 06:05:17;;;;;;;;;;;;;;;29.72;46.27;100023.91;5403180;32;34457;-88
2022/08/26 06:08:22;;;;;;;;;;;;;;;31.42;41.90;100031.81;5424332;32;34281;-96
2022/08/26 06:11:25;;;;;;;;;;;;;;;31.74;40.36;100030.22;5424312;32;35126;-87
2022/08/26 06:14:29;;;;;;;;;;;;;;;32.45;39.02;100035.94;5385751;32;34429;-88
2022/08/26 06:17:31;;;;;;;;;;;;;;;33.31;37.49;100027.59;5407143;32;35557;-90
2022/08/26 06:20:35;;;;;;;;;;;;;;;32.37;38.86;100036.19;5426756;32;34753;-90
2022/08/26 06:27:12;;;;;;;;;;;;;;;;;;;;;
2022/08/26 06:30:20;;;;;;;;;;;;;;;32.88;38.78;100035.50;5415064;32;32720;-90
2022/08/26 06:33:23;;;;;;;;;;;;;;;32.61;39.01;100035.53;5420856;32;32713;-89
2022/08/26 06:36:27;;;;;;;;;;;;;;;32.08;38.89;100042.84;5428012;32;35466;-90
2022/08/26 06:39:29;;;;;;;;;;;;;;;32.79;38.46;100040.31;5422984;32;35561;-96
2022/08/26 06:42:34;;;;;;;;;;;;;;;32.75;38.23;100040.94;5419971;32;35208;-90
2022/08/26 06:45:37;;;;;;;;;;;;;;;33.36;36.89;100025.06;5452456;32;35129;-96
2022/08/26 06:48:42;;;;;;;;;;;;;;;33.76;35.37;100030.28;5416367;32;46082;-90
2022/08/26 06:51:44;;;;;;;;;;;;;;;34.98;33.33;100030.75;5418702;32;34231;-89
2022/08/26 06:54:49;;;;;;;;;;;;;;;33.25;35.74;100031.16;5425832;32;34968;-89
2022/08/26 06:57:51;;;;;;;;;;;;;;;33.60;34.31;100030.81;5439389;32;34741;-88
2022/08/26 07:00:56;;;;;;;;;;;;;;;33.67;33.82;100026.16;5425640;32;35127;-87
2022/08/26 07:04:05;;;;;;;;;;;;;;;34.41;32.66;100021.84;5397638;32;33940;-90
2022/08/26 07:07:14;;;;;;;;;;;;;;;34.34;32.41;100030.06;5431983;32;46094;-91
2022/08/26 07:10:17;;;;;;;;;;;;;;;34.57;31.58;100024.00;5389664;32;34318;-96
2022/08/26 07:13:21;;;;;;;;;;;;;;;32.93;34.81;100029.41;5394032;32;34217;-90
2022/08/26 07:16:31;;;;;;;;;;;;;;;34.86;30.61;100024.34;5401914;32;34955;-89
2022/08/26 07:19:36;;;;;;;;;;;;;;;35.32;29.32;100022.97;5402220;32;34323;-90
2022/08/26 07:22:40;;;;;;;;;;;;;;;35.38;29.99;100027.50;5439889;32;45531;-90
2022/08/26 07:25:43;;;;;;;;;;;;;;;36.67;27.20;100027.81;5407926;32;34103;-95
2022/08/26 07:28:52;;;;;;;;;;;;;;;35.20;29.70;100026.47;5433637;32;34480;-91
2022/08/26 07:31:55;;;;;;;;;;;;;;;33.94;30.85;100032.28;5409647;32;34125;-96
2022/08/26 07:34:57;;;;;;;;;;;;;;;34.24;30.92;100024.28;5416383;32;33963;-91
2022/08/26 07:38:00;;;;;;;;;;;;;;;35.03;29.30;100024.56;5411772;32;34443;-96
2022/08/26 07:41:03;;;;;;;;;;;;;;;33.93;30.74;100020.53;5432692;32;33942;-91
2022/08/26 07:44:07;;;;;;;;;;;;;;;32.99;32.86;100017.66;5431448;32;35208;-90
2022/08/26 07:47:13;;;;;;;;;;;;;;;34.32;30.54;100021.25;5385836;32;45230;-96
2022/08/26 07:50:26;;;;;;;;;;;;;;;35.68;28.88;100016.56;5419258;32;35107;-90
2022/08/26 07:53:49;;;;;;;;;;;;;;;36.12;28.13;100012.53;5441371;32;45011;-96
2022/08/26 07:56:53;;;;;;;;;;;;;;;36.41;27.74;100012.72;5411855;27;34007;-72
2022/08/26 07:59:57;;;;;;;;;;;;;;;35.87;28.44;100025.53;5391550;32;34264;-72
2022/08/26 08:02:59;;;;;;;;;;;;;;;38.54;24.13;100013.28;5343789;32;34321;-73
2022/08/26 08:06:01;;;;;;;;;;;;;;;36.71;26.45;100009.81;5377199;32;34163;-72
2022/08/26 08:09:04;;;;;;;;;;;;;;;36.99;26.51;100012.66;5364443;32;35250;-77
2022/08/26 08:12:08;;;;;;;;;;;;;;;39.14;23.82;99997.88;5354880;32;32676;-78
2022/08/26 08:15:15;;;;;;;;;;;;;;;37.32;25.55;100005.66;5366121;32;44418;-73
2022/08/26 08:18:17;;;;;;;;;;;;;;;39.06;23.34;99998.34;5361402;32;34302;-74
2022/08/26 08:21:22;;;;;;;;;;;;;;;37.67;24.84;99992.63;5359210;32;34345;-76
2022/08/26 08:24:25;;;;;;;;;;;;;;;36.32;26.34;100003.97;5364025;32;34445;-70
2022/08/26 08:27:27;;;;;;;;;;;;;;;37.20;24.68;99989.25;5369695;32;34185;-71
2022/08/26 08:30:30;;;;;;;;;;;;;;;40.00;21.83;99986.97;5353084;32;34265;-75
2022/08/26 08:33:35;;;;;;;;;;;;;;;40.11;19.93;99990.62;5354094;32;33723;-74
2022/08/26 08:36:39;;;;;;;;;;;;;;;36.20;24.13;99998.53;5366877;32;34350;-80
2022/08/26 08:39:42;;;;;;;;;;;;;;;38.44;21.13;99982.94;5367087;32;45401;-77
2022/08/26 08:42:56;;;;;;;;;;;;;;;37.48;21.82;99979.38;5375161;32;34477;-78
2022/08/26 08:45:59;;;;;;;;;;;;;;;37.80;21.30;99974.22;5358044;32;34527;-69
2022/08/26 08:49:05;;;;;;;;;;;;;;;37.16;22.46;99982.59;5381912;32;34082;-75
2022/08/26 08:52:17;;;;;;;;;;;;;;;39.69;19.65;99964.69;5366910;32;35086;-70
2022/08/26 08:55:20;;;;;;;;;;;;;;;40.79;18.48;99975.91;5346261;32;35695;-72
2022/08/26 08:58:42;;;;;;;;;;;;;;;37.22;22.53;99976.13;5374497;32;34501;-71
2022/08/26 09:01:50;;;;;;;;;;;;;;;40.19;19.34;99968.97;5347164;32;45038;-71
2022/08/26 09:05:01;;;;;;;;;;;;;;;39.06;20.63;99971.69;5368038;32;35505;-71
2022/08/26 09:08:10;;;;;;;;;;;;;;;38.51;20.98;99969.03;5370541;32;35923;-74
2022/08/26 09:11:13;;;;;;;;;;;;;;;40.70;19.03;99968.44;5372056;32;46597;-74
2022/08/26 09:14:15;;;;;;;;;;;;;;;38.36;20.57;99972.38;5367915;32;35629;-74
2022/08/26 09:17:18;;;;;;;;;;;;;;;38.37;20.70;99968.56;5373491;32;32645;-74
2022/08/26 09:20:38;;;;;;;;;;;;;;;39.84;19.21;99960.41;5378382;32;34054;-74
2022/08/26 09:23:41;;;;;;;;;;;;;;;41.10;17.83;99945.75;5363911;32;44050;-75
2022/08/26 09:26:46;;;;;;;;;;;;;;;40.30;18.34;99954.16;5368583;32;34808;-74
2022/08/26 09:29:48;;;;;;;;;;;;;;;41.88;16.67;99937.31;5376056;32;35603;-74
2022/08/26 09:33:03;;;;;;;;;;;;;;;38.57;20.34;99946.03;5367565;32;37064;-75
2022/08/26 09:36:25;;;;;;;;;;;;;;;40.28;18.53;99945.34;5376580;32;45295;-71
2022/08/26 09:39:36;;;;;;;;;;;;;;;41.53;17.52;99936.19;5347699;32;33457;-72
2022/08/26 09:42:38;;;;;;;;;;;;;;;38.68;20.21;99947.84;5344196;32;34632;-71
2022/08/26 09:45:42;;;;;;;;;;;;;;;38.58;20.48;99940.31;5361144;32;45419;-71
2022/08/26 09:48:51;;;;;;;;;;;;;;;38.38;21.03;99940.84;5372835;32;34147;-73
2022/08/26 09:52:03;;;;;;;;;;;;;;;41.19;17.67;99935.00;5383547;32;34040;-74
2022/08/26 09:55:06;;;;;;;;;;;;;;;40.41;18.75;99934.94;5362317;32;35658;-77
2022/08/26 09:58:31;;;;;;;;;;;;;;;39.58;19.76;99937.31;5376732;32;34313;-75
2022/08/26 10:01:34;;;;;;;;;;;;;;;40.72;18.58;99927.69;5349986;32;38543;-73
2022/08/26 10:04:37;;;;;;;;;;;;;;;39.13;19.83;99931.09;5362958;32;34402;-78
2022/08/26 10:07:42;;;;;;;;;;;;;;;41.32;17.75;99924.31;5380294;32;34211;-73
2022/08/26 10:10:44;;;;;;;;;;;;;;;42.46;16.43;99919.25;5367241;32;46265;-73
2022/08/26 10:13:56;;;;;;;;;;;;;;;41.69;17.45;99922.41;5355113;32;34842;-74
2022/08/26 10:17:06;;;;;;;;;;;;;;;40.09;18.85;99915.78;5349369;32;34486;-73
2022/08/26 10:20:15;;;;;;;;;;;;;;;40.74;18.27;99909.78;5355290;32;34371;-73
2022/08/26 10:23:24;;;;;;;;;;;;;;;39.25;19.55;99915.31;5373044;32;34452;-70
2022/08/26 10:26:46;;;;;;;;;;;;;;;39.32;19.77;99919.78;5352194;32;34281;-71
2022/08/26 10:29:50;;;;;;;;;;;;;;;38.86;20.00;99917.34;5376818;32;44824;-74
2022/08/26 10:32:54;;;;;;;;;;;;;;;39.85;19.03;99916.13;5351879;32;34332;-76
2022/08/26 10:35:57;;;;;;;;;;;;;;;38.55;20.25;99920.75;5355393;32;35933;-79
2022/08/26 10:39:00;;;;;;;;;;;;;;;39.84;18.74;99903.47;5375201;32;35356;-78
2022/08/26 10:42:03;;;;;;;;;;;;;;;41.40;17.35;99904.47;5370304;32;34070;-75
2022/08/26 10:45:13;;;;;;;;;;;;;;;39.04;19.64;99899.69;5364349;32;34118;-73
2022/08/26 10:48:17;;;;;;;;;;;;;;;37.95;20.50;99894.94;5370687;32;45576;-78
2022/08/26 10:51:35;;;;;;;;;;;;;;;36.58;22.47;99894.06;5358264;32;34419;-78
2022/08/26 10:54:43;;;;;;;;;;;;;;;35.92;23.46;99898.03;5392035;32;34359;-73
2022/08/26 10:57:54;;;;;;;;;;;;;;;36.10;22.65;99898.97;5350263;32;46185;-73
2022/08/26 11:04:47;;;;;;;;;;;;;;;35.61;23.14;99895.59;5365852;32;35262;-78
2022/08/26 11:07:54;;;;;;;;;;;;;;;35.38;23.27;99886.25;5359635;32;34828;-73
2022/08/26 11:10:58;;;;;;;;;;;;;;;37.47;20.86;99873.56;5378716;32;35331;-73
2022/08/26 11:14:07;;;;;;;;;;;;;;;35.60;23.18;99888.47;5365997;32;35408;-73
2022/08/26 11:17:10;;;;;;;;;;;;;;;36.12;22.69;99875.78;5392479;32;34222;-73
2022/08/26 11:20:21;;;;;;;;;;;;;;;36.21;22.87;99873.53;5366135;32;46493;-76
2022/08/26 11:23:27;;;;;;;;;;;;;;;36.87;22.45;99872.22;5371617;32;35230;-74
2022/08/26 11:26:33;;;;;;;;;;;;;;;38.68;19.35;99866.28;5375925;32;35454;-73
2022/08/26 11:29:55;;;;;;;;;;;;;;;39.50;18.38;99870.72;5360560;32;38466;-71
2022/08/26 11:32:57;;;;;;;;;;;;;;;40.20;18.01;99863.28;5379809;32;34369;-73
2022/08/26 11:35:59;;;;;;;;;;;;;;;42.95;15.20;99846.63;5359670;32;34220;-73
2022/08/26 11:39:12;;;;;;;;;;;;;;;40.61;17.47;99846.94;5362068;32;44543;-73
2022/08/26 11:42:16;;;;;;;;;;;;;;;42.08;15.61;99837.91;5369823;32;34205;-76
2022/08/26 11:45:22;;;;;;;;;;;;;;;40.10;17.59;99846.69;5358690;32;34857;-75
2022/08/26 11:48:35;;;;;;;;;;;;;;;38.39;19.39;99845.66;5361377;32;34191;-74
2022/08/26 11:51:37;;;;;;;;;;;;;;;38.89;18.73;99842.66;5340728;32;35096;-73
2022/08/26 11:55:00;;;;;;;;;;;;;;;39.47;18.19;99834.69;5356815;32;46129;-74
2022/08/26 11:58:03;;;;;;;;;;;;;;;41.26;16.63;99825.31;5373753;32;35443;-74
2022/08/26 12:01:06;;;;;;;;;;;;;;;38.88;19.31;99831.94;5331204;32;35309;-74
2022/08/26 12:04:15;;;;;;;;;;;;;;;37.72;20.53;99826.53;5357131;32;45611;-74
2022/08/26 12:07:20;;;;;;;;;;;;;;;40.19;18.02;99812.09;5360006;32;34285;-73
2022/08/26 12:10:28;;;;;;;;;;;;;;;43.92;14.40;99811.81;5380443;32;35988;-73
2022/08/26 12:13:30;;;;;;;;;;;;;;;43.57;14.37;99816.59;5355533;32;35049;-74
2022/08/26 12:16:37;;;;;;;;;;;;;;;44.73;13.13;99808.03;5347883;32;34295;-74
2022/08/26 12:19:40;;;;;;;;;;;;;;;45.26;12.69;99801.38;5368972;32;37992;-74
2022/08/26 12:22:42;;;;;;;;;;;;;;;45.37;12.45;99791.78;5362232;32;34632;-75
2022/08/26 12:25:50;;;;;;;;;;;;;;;44.31;13.50;99790.31;5380034;32;35376;-73
2022/08/26 12:28:59;;;;;;;;;;;;;;;44.06;13.83;99787.84;5363764;32;34417;-74
2022/08/26 12:32:08;;;;;;;;;;;;;;;45.31;12.42;99787.41;5370177;32;35297;-73
2022/08/26 12:35:11;;;;;;;;;;;;;;;43.01;14.44;99785.81;5358446;32;44711;-73
2022/08/26 12:38:13;;;;;;;;;;;;;;;43.82;13.64;99779.56;5354057;32;35232;-73
2022/08/26 12:41:34;;;;;;;;;;;;;;;45.50;12.47;99770.75;5379691;32;35148;-75
2022/08/26 12:44:46;;;;;;;;;;;;;;;46.16;11.88;99772.22;5368655;32;34456;-75
2022/08/26 12:47:56;;;;;;;;;;;;;;;46.58;11.89;99762.69;5359427;32;35022;-76
2022/08/26 12:50:58;;;;;;;;;;;;;;;47.48;10.11;99759.88;5370952;32;35013;-75
2022/08/26 12:54:05;;;;;;;;;;;;;;;44.67;13.06;99756.56;5365848;32;34302;-74
2022/08/26 12:57:10;;;;;;;;;;;;;;;47.42;10.10;99759.19;5378694;32;34620;-75
2022/08/26 13:00:28;;;;;;;;;;;;;;;42.06;15.03;99756.47;5353784;32;43200;-75
2022/08/26 13:03:33;;;;;;;;;;;;;;;40.49;16.17;99761.81;5372258;32;35018;-74
2022/08/26 13:06:34;;;;;;;;;;;;;;;39.77;17.35;99757.09;5369514;32;34915;-75
2022/08/26 13:09:37;;;;;;;;;;;;;;;37.83;19.63;99755.19;5354280;32;33969;-74
2022/08/26 13:12:39;;;;;;;;;;;;;;;39.04;17.97;99761.50;5379691;32;35183;-76
2022/08/26 13:15:41;;;;;;;;;;;;;;;38.39;19.38;99749.59;5353378;32;44726;-74
2022/08/26 13:18:44;;;;;;;;;;;;;;;36.71;20.42;99747.00;5379788;32;35244;-74
2022/08/26 13:21:53;;;;;;;;;;;;;;;36.43;21.16;99743.22;5364697;32;35539;-73
2022/08/26 13:24:55;;;;;;;;;;;;;;;36.25;21.59;99735.19;5375822;32;35035;-74
2022/08/26 13:27:57;;;;;;;;;;;;;;;36.61;21.05;99732.06;5367762;32;34383;-75
2022/08/26 13:30:59;;;;;;;;;;;;;;;37.23;20.28;99733.97;5362170;32;34983;-74
2022/08/26 13:34:02;;;;;;;;;;;;;;;36.51;21.26;99737.34;5378759;32;34144;-72
2022/08/26 13:37:05;;;;;;;;;;;;;;;36.82;20.89;99729.69;5350359;32;34163;-73
2022/08/26 13:40:07;;;;;;;;;;;;;;;36.19;21.64;99734.25;5363736;32;35356;-75
2022/08/26 13:43:10;;;;;;;;;;;;;;;37.29;20.31;99718.41;5365099;32;34195;-74
2022/08/26 13:46:12;;;;;;;;;;;;;;;36.40;21.64;99724.56;5359672;32;44966;-74
2022/08/26 13:49:14;;;;;;;;;;;;;;;35.59;22.56;99726.41;5353509;32;34488;-74
2022/08/26 13:52:16;;;;;;;;;;;;;;;36.02;21.50;99719.69;5364427;32;35444;-73
2022/08/26 13:55:30;;;;;;;;;;;;;;;35.94;21.73;99715.44;5376201;32;35312;-73
2022/08/26 13:58:32;;;;;;;;;;;;;;;35.69;22.24;99717.59;5364409;32;34280;-72
2022/08/26 14:01:34;;;;;;;;;;;;;;;35.26;22.74;99716.06;5359544;32;34091;-74
2022/08/26 14:04:36;;;;;;;;;;;;;;;36.13;21.40;99707.84;5366686;32;35067;-74
2022/08/26 14:07:38;;;;;;;;;;;;;;;35.50;22.16;99711.44;5369067;32;34270;-74
2022/08/26 14:10:40;;;;;;;;;;;;;;;35.48;21.97;99708.94;5360485;32;44594;-73
2022/08/26 14:13:43;;;;;;;;;;;;;;;35.61;21.89;99704.28;5365893;32;34223;-74
2022/08/26 14:16:45;;;;;;;;;;;;;;;36.52;21.02;99708.09;5380623;32;35885;-75
2022/08/26 14:20:00;;;;;;;;;;;;;;;35.72;21.61;99714.38;5362610;32;34229;-75
2022/08/26 14:23:03;;;;;;;;;;;;;;;36.59;20.95;99715.09;5380061;32;34060;-74
2022/08/26 14:26:14;;;;;;;;;;;;;;;36.74;20.56;99713.69;5376266;32;45296;-74
2022/08/26 14:29:30;;;;;;;;;;;;;;;36.27;20.94;99724.84;5365443;32;34223;-74
2022/08/26 14:32:32;;;;;;;;;;;;;;;35.72;22.16;99722.56;5379573;32;35419;-73
2022/08/26 14:35:34;;;;;;;;;;;;;;;35.31;22.11;99727.09;5363231;32;34243;-74
2022/08/26 14:38:36;;;;;;;;;;;;;;;34.83;22.89;99730.78;5384501;32;35015;-74
2022/08/26 14:41:48;;;;;;;;;;;;;;;36.14;21.84;99722.41;5362054;32;34142;-75
2022/08/26 14:44:56;;;;;;;;;;;;;;;35.91;21.40;99724.13;5357055;32;34431;-74
2022/08/26 14:47:58;;;;;;;;;;;;;;;35.11;22.68;99724.72;5382290;32;34212;-75
2022/08/26 14:51:00;;;;;;;;;;;;;;;34.85;22.87;99725.13;5360593;32;34316;-75
2022/08/26 14:54:11;;;;;;;;;;;;;;;35.42;21.94;99723.53;5383516;32;35483;-77
2022/08/26 14:57:13;;;;;;;;;;;;;;;35.83;21.70;99715.44;5363939;32;44538;-73
2022/08/26 15:00:16;;;;;;;;;;;;;;;35.79;21.77;99707.69;5374212;32;36045;-75
2022/08/26 15:03:17;;;;;;;;;;;;;;;35.99;21.93;99712.78;5353021;32;34274;-74
2022/08/26 15:06:24;;;;;;;;;;;;;;;35.19;22.33;99707.97;5365522;32;35022;-75
2022/08/26 15:09:27;;;;;;;;;;;;;;;34.87;22.83;99710.16;5381303;32;34208;-74
2022/08/26 15:12:28;;;;;;;;;;;;;;;34.86;22.22;99704.94;5350699;32;35413;-72
2022/08/26 15:15:30;;;;;;;;;;;;;;;34.68;22.81;99705.84;5378530;32;35188;-74
2022/08/26 15:18:32;;;;;;;;;;;;;;;34.93;22.63;99711.16;5363802;32;34883;-76
2022/08/26 15:21:34;;;;;;;;;;;;;;;34.62;23.48;99699.44;5374495;32;34231;-74
2022/08/26 15:24:36;;;;;;;;;;;;;;;34.82;23.14;99701.00;5371573;32;34355;-73
2022/08/26 15:27:38;;;;;;;;;;;;;;;35.56;22.12;99687.81;5365605;32;35397;-73
2022/08/26 15:30:40;;;;;;;;;;;;;;;34.72;23.28;99699.69;5364467;32;45004;-74
2022/08/26 15:33:43;;;;;;;;;;;;;;;33.88;24.41;99701.44;5361733;32;35000;-74
2022/08/26 15:36:45;;;;;;;;;;;;;;;34.37;23.69;99683.19;5363627;32;34228;-73
2022/08/26 15:39:47;;;;;;;;;;;;;;;34.29;24.08;99696.34;5364874;32;34393;-75
2022/08/26 15:42:49;;;;;;;;;;;;;;;34.73;23.75;99695.91;5372302;32;36658;-74
2022/08/26 15:46:02;;;;;;;;;;;;;;;34.35;24.37;99698.97;5375285;32;35014;-74
2022/08/26 15:49:04;;;;;;;;;;;;;;;34.57;24.01;99698.47;5356863;32;35306;-73
2022/08/26 15:52:06;;;;;;;;;;;;;;;34.56;24.15;99694.06;5379079;32;35066;-72
2022/08/26 15:55:08;;;;;;;;;;;;;;;34.16;24.95;99687.28;5362701;32;34216;-75
2022/08/26 15:58:10;;;;;;;;;;;;;;;34.41;24.64;99681.69;5377287;32;36312;-76
2022/08/26 16:01:13;;;;;;;;;;;;;;;34.47;24.80;99683.50;5332984;32;34907;-73
2022/08/26 16:04:19;;;;;;;;;;;;;;;34.61;24.69;99669.66;5363945;32;35635;-74
2022/08/26 16:07:21;;;;;;;;;;;;;;;35.08;24.20;99667.00;5365000;32;32810;-72